Salinas, CA (93906)

2:18 PM PDT on July 24, 2016 (GMT -0700)
APRSWXNET | | Change Station

Elev 114 ft 36.71 °N, 121.61 °W | Updated 21 minutes ago

Partly Cloudy
Partly Cloudy
69 °F
Feels Like 69 °F
N
7
Wind Variable Wind from West
Gusts 12.0 mph

Today
High -- | Low -- °F
--% Chance of Precip.
Yesterday
High -- | Low -- °F
Precip. -- in
Pressure 29.94 in
Visibility 9.0 miles
Clouds Few 6000 ft
Dew Point 56 °F
Humidity 64%
Rainfall in
Snow Depth Not available.
6:06 AM 8:19 PM
Waning Gibbous, 73% visible
METAR KSNS 242053Z AUTO 27012KT 9SM FEW060 19/12 A2991 RMK AO2 SLP138 T01890117 53007 TSNO
Pressure 29.94 in
Visibility 9.0 miles
Clouds Few 6000 ft
Dew Point 56 °F
Humidity 64%
Rainfall in
Snow Depth Not available.
6:06 AM 8:19 PM
Waning Gibbous, 73% visible
METAR KSNS 242053Z AUTO 27012KT 9SM FEW060 19/12 A2991 RMK AO2 SLP138 T01890117 53007 TSNO

10-Day Weather Forecast

Almanac

Astronomy

Jul. 24, 2016 Rise Set
Actual Time
Civil Twilight
Nautical Twilight
Astronomical Twilight
Moon
Length of Visible Light
Length of Day
Tomorrow will be .
, % of the Moon is Illuminated

Today's Extremes

State Highs State Lows

Community

WunderPhotos

Upload Photos

1,927,191 photos uploaded!

WunderBlog® & News

Nearby

Air Quality

  Air Quality AQ Index Pollutant
Not available.

Snow Depth

Station Depth Elevation

Earthquake Activity

City Distance Mag. Time & Date
Minimum magnitude displayed is 2.5.

Coastal Water Temperatures

Place Temperature

Stations

Nearby Weather Stations

Station Location Temp. Windchill Dew Point Humidity Wind Precip. Elev Updated Type
                   

Watches & Warnings

There are currently no watches in effect.